createdAt,value
2022-12-16T00:08:23.124Z,72.93
2022-12-16T00:18:26.329Z,69.47
2022-12-16T00:28:30.890Z,68.60
2022-12-16T00:38:33.896Z,61.20
2022-12-16T00:48:38.215Z,59.73
2022-12-16T00:58:42.725Z,58.03
2022-12-16T01:08:48.878Z,71.90
2022-12-16T01:18:52.279Z,60.80
2022-12-16T01:28:56.498Z,56.13
2022-12-16T01:38:59.782Z,63.97
2022-12-16T01:49:12.336Z,52.87
2022-12-16T01:59:18.389Z,54.93
2022-12-16T02:09:22.983Z,61.43
2022-12-16T02:20:11.005Z,57.30
2022-12-16T02:30:39.699Z,52.57
2022-12-16T02:40:45.854Z,52.00
2022-12-16T02:50:52.172Z,48.87
2022-12-16T03:01:03.149Z,50.03
2022-12-16T03:11:09.324Z,48.73
2022-12-16T03:21:15.194Z,54.53
2022-12-16T03:31:32.851Z,44.67
2022-12-16T03:41:37.740Z,44.77
2022-12-16T03:51:41.995Z,43.70
2022-12-16T04:01:45.230Z,42.10
2022-12-16T04:12:07.022Z,40.23
2022-12-16T04:22:32.063Z,33.07
2022-12-16T04:32:50.570Z,41.07
2022-12-16T04:43:11.064Z,37.73
2022-12-16T04:53:33.361Z,41.93
2022-12-16T05:03:54.577Z,44.20
2022-12-16T05:14:18.660Z,41.33
2022-12-16T05:24:39.589Z,37.43
2022-12-16T05:35:16.608Z,37.10
2022-12-16T05:45:37.066Z,40.40
2022-12-16T05:55:56.272Z,36.20
2022-12-16T06:06:17.065Z,32.70
2022-12-16T06:16:38.940Z,37.37
2022-12-16T06:26:59.713Z,31.13
2022-12-16T06:37:21.730Z,42.33
2022-12-16T06:47:42.361Z,40.87
2022-12-16T06:58:09.595Z,38.63
2022-12-16T07:08:30.681Z,39.23
2022-12-16T07:18:52.288Z,40.87
2022-12-16T07:29:12.765Z,33.80
2022-12-16T07:53:26.837Z,35.63
2022-12-16T08:00:37.393Z,36.97
2022-12-16T08:10:57.771Z,37.90
2022-12-16T08:21:19.529Z,36.53
2022-12-16T08:31:40.313Z,39.17
2022-12-16T08:42:02.074Z,40.17
2022-12-16T08:52:23.283Z,38.67
2022-12-16T09:02:45.313Z,36.20
2022-12-16T09:13:07.649Z,44.07
2022-12-16T09:23:34.335Z,37.43
2022-12-16T09:33:55.488Z,40.57
2022-12-16T09:44:27.199Z,46.80
2022-12-16T09:54:50.541Z,37.23
2022-12-16T10:05:13.476Z,34.80
2022-12-16T10:15:45.894Z,33.37
2022-12-16T10:26:12.695Z,40.37
2022-12-16T10:36:39.568Z,37.10
2022-12-16T10:47:01.440Z,37.90
2022-12-16T10:57:29.637Z,36.63
2022-12-16T11:07:55.420Z,33.53
2022-12-16T11:18:21.114Z,31.43
2022-12-16T11:28:43.046Z,32.87
2022-12-16T11:39:06.058Z,36.57
2022-12-16T11:49:36.267Z,41.77
2022-12-16T12:00:00.820Z,35.47
2022-12-16T12:10:36.710Z,34.97
2022-12-16T12:21:06.106Z,36.40
2022-12-16T12:31:40.754Z,47.17
2022-12-16T12:42:22.906Z,42.27
2022-12-16T12:53:11.095Z,51.23
2022-12-16T13:03:36.376Z,47.17
2022-12-16T13:13:58.775Z,46.23
2022-12-16T13:24:43.149Z,52.80
2022-12-16T13:35:05.405Z,47.00
2022-12-16T13:45:36.568Z,52.63
2022-12-16T13:56:03.422Z,51.47
2022-12-16T14:06:30.071Z,46.13
2022-12-16T14:17:01.680Z,49.87
2022-12-16T14:27:30.171Z,51.70
2022-12-16T14:37:55.589Z,58.60
2022-12-16T14:48:24.660Z,52.83
2022-12-16T14:58:46.647Z,50.80
2022-12-16T15:09:23.967Z,63.40
2022-12-16T15:19:46.199Z,70.40
2022-12-16T15:30:09.011Z,72.70
2022-12-16T15:40:44.826Z,57.43
2022-12-16T15:51:11.790Z,62.13
2022-12-16T16:01:36.640Z,54.07
2022-12-16T16:12:12.021Z,60.87
2022-12-16T16:22:36.065Z,64.10
2022-12-16T16:33:11.285Z,70.27
2022-12-16T16:43:34.941Z,53.43
2022-12-16T16:53:56.231Z,62.20
2022-12-16T17:04:18.191Z,69.87
2022-12-16T17:14:40.258Z,73.93
2022-12-16T17:25:02.429Z,98.33
2022-12-16T17:35:31.831Z,99.10
2022-12-16T17:45:54.558Z,79.83
2022-12-16T17:56:14.924Z,91.80
2022-12-16T18:06:36.697Z,92.23
2022-12-16T18:16:57.181Z,99.03
2022-12-16T18:37:39.920Z,82.50
2022-12-16T18:48:10.205Z,125.30
2022-12-16T19:09:13.337Z,77.37
2022-12-16T19:19:34.068Z,80.43
2022-12-16T19:29:56.083Z,79.30
2022-12-16T19:40:27.952Z,76.43
2022-12-16T19:50:50.495Z,83.23
2022-12-16T20:01:12.456Z,86.97
2022-12-16T20:11:34.160Z,89.97
2022-12-16T20:21:56.277Z,72.57
2022-12-16T20:32:18.669Z,90.63
2022-12-16T20:42:39.297Z,93.53
2022-12-16T20:53:12.559Z,90.87
2022-12-16T21:03:33.195Z,78.67
2022-12-16T21:13:56.368Z,85.67
2022-12-16T21:24:17.235Z,93.80
2022-12-16T21:34:39.267Z,84.23
2022-12-16T21:44:59.848Z,84.37
2022-12-16T21:55:21.806Z,82.20
2022-12-16T22:05:42.723Z,76.60
2022-12-16T22:16:13.639Z,79.27
2022-12-16T22:26:34.230Z,90.07
2022-12-16T22:36:57.072Z,88.07
2022-12-16T22:47:17.982Z,77.90
2022-12-16T22:57:39.618Z,82.90
2022-12-16T23:08:00.430Z,90.27
2022-12-16T23:18:22.935Z,80.53
2022-12-16T23:28:44.467Z,90.77
2022-12-16T23:39:06.801Z,89.77
2022-12-16T23:49:29.608Z,86.87
2022-12-16T23:59:51.372Z,87.23
